Hovedside
METAR-TAF:

METAR-TAF

Lufthavner :

Malmö, Sverige

Malmö lufthavn

breddegrad: 55-33N, lengdegrad: 013-22E, høyde over havet: 106 m

Gjeldene værobservasjon

Denne rapporten ble laget for 39 minutter siden, klokken 09:50 UTC
Vind 15 kt fra Sørvest
Temperatur 18°C
Luftfuktighet 73%
Trykk 1002 hPa
Sikt 10 km eller mer
Spredte skyer i en høyde av 2100 ft
Brutte skyer i en høyde av 4600 ft

METAR: ESMS 250950Z 23015KT 9999 SCT021 BKN046 18/13 Q1002

Tid: 12:29 (10:29 UTC)


TAF: fraværende

Værobservasjoner og værvarsel for over 4000 flyplasser (METAR- og TAF-rapporter).

Tilgjengelige stasjoner er representert av de røde og gule prikkene på kartet.

Hold musepekeren over prikken for å se navnet på stasjonen.

Klikk så for å se værobservasjoner og -varsler.

For å forandre kartet kan du klikke på den grønne knappen med svart kryss for å zoome inn, på den grønne knappen med strek for å zoome ut, eller på de grønne pilene for å se tilstøtende kart.


METAR-TAF: